Time;durP1;ratioP1;P1;durP2;ratioP2;P2;SDS_P1;SDS_P2;PMS_P1;PMS_P2;Temp;Humidity;BMP_temperature;BMP_pressure;BME280_temperature;BME280_humidity;BME280_pressure;Samples;Min_cycle;Max_cycle;Signal;HPM_P1;HPM_P2
2023/08/27 00:00:56;;;;;;;;;;;;;;;27.28;38.07;100517.28;5078388;28;1986;-37
2023/08/27 00:03:22;;;;;;;;;;;;;;;27.14;38.25;100513.63;5078942;28;1105;-39
2023/08/27 00:05:47;;;;;;;;;;;;;;;27.31;37.94;100513.41;5065477;28;1071;-37
2023/08/27 00:08:13;;;;;;;;;;;;;;;27.30;38.20;100507.16;5078830;28;1229;-39
2023/08/27 00:10:39;;;;;;;;;;;;;;;27.55;37.24;100514.06;5078717;28;1062;-38
2023/08/27 00:13:04;;;;;;;;;;;;;;;27.33;37.87;100512.16;5079297;28;1174;-36
2023/08/27 00:15:30;;;;;;;;;;;;;;;27.49;37.43;100507.56;5078430;28;1214;-34
2023/08/27 00:17:55;;;;;;;;;;;;;;;27.41;37.30;100503.09;5078953;28;1122;-34
2023/08/27 00:20:21;;;;;;;;;;;;;;;27.35;37.53;100499.31;5079110;28;1996;-37
2023/08/27 00:22:46;;;;;;;;;;;;;;;27.24;38.14;100505.22;5078520;28;1095;-38
2023/08/27 00:25:12;;;;;;;;;;;;;;;27.32;37.57;100504.25;5078200;28;1073;-39
2023/08/27 00:27:38;;;;;;;;;;;;;;;27.08;38.06;100503.53;5078694;28;1066;-39
2023/08/27 00:30:04;;;;;;;;;;;;;;;27.25;37.87;100501.47;5060423;28;1148;-37
2023/08/27 00:32:33;;;;;;;;;;;;;;;27.34;37.31;100494.91;5060373;28;1162;-39
2023/08/27 00:34:59;;;;;;;;;;;;;;;26.89;38.35;100497.69;5060638;28;1305;-38
2023/08/27 00:37:24;;;;;;;;;;;;;;;27.38;37.35;100500.78;5060304;28;1245;-39
2023/08/27 00:39:50;;;;;;;;;;;;;;;26.98;38.30;100498.41;5060265;28;1909;-39
2023/08/27 00:42:15;;;;;;;;;;;;;;;27.38;37.29;100508.88;5046097;28;1098;-40
2023/08/27 00:44:41;;;;;;;;;;;;;;;26.40;36.68;100503.47;5041085;28;1167;-37
2023/08/27 00:47:07;;;;;;;;;;;;;;;27.00;36.00;100509.88;5078601;28;1050;-38
2023/08/27 00:49:32;;;;;;;;;;;;;;;27.07;37.50;100499.19;5057029;28;1072;-36
2023/08/27 00:51:58;;;;;;;;;;;;;;;27.35;37.32;100496.63;5077962;28;987;-37
2023/08/27 00:54:24;;;;;;;;;;;;;;;27.12;37.46;100500.31;5058958;28;2771;-38
2023/08/27 00:56:49;;;;;;;;;;;;;;;27.46;37.07;100502.53;5059461;28;1211;-37
2023/08/27 00:59:15;;;;;;;;;;;;;;;26.94;38.06;100505.22;5058728;28;1894;-37
2023/08/27 01:01:41;;;;;;;;;;;;;;;27.37;36.96;100501.81;5047466;28;1043;-37
2023/08/27 01:04:07;;;;;;;;;;;;;;;27.11;38.04;100505.91;5077578;28;1075;-37
2023/08/27 01:06:34;;;;;;;;;;;;;;;27.25;37.88;100506.88;5059157;28;1243;-36
2023/08/27 01:09:03;;;;;;;;;;;;;;;27.19;37.83;100495.00;5076720;28;1173;-37
2023/08/27 01:11:48;;;;;;;;;;;;;;;27.24;37.66;100497.94;5047996;28;1028;-37
2023/08/27 01:14:14;;;;;;;;;;;;;;;26.99;37.97;100486.59;5055965;28;1534;-37
2023/08/27 01:16:40;;;;;;;;;;;;;;;27.28;37.44;100490.28;5050039;28;1035;-37
2023/08/27 01:19:07;;;;;;;;;;;;;;;27.17;37.75;100502.44;5042507;28;1075;-37
2023/08/27 01:21:33;;;;;;;;;;;;;;;27.22;37.96;100502.69;5067821;28;1905;-35
2023/08/27 01:23:58;;;;;;;;;;;;;;;27.14;37.94;100502.81;5048001;28;2392;-34
2023/08/27 01:26:41;;;;;;;;;;;;;;;27.10;37.91;100506.91;5067957;28;1043;-39
2023/08/27 01:29:10;;;;;;;;;;;;;;;27.21;37.53;100511.00;5052810;28;1125;-39
2023/08/27 01:31:38;;;;;;;;;;;;;;;26.99;37.95;100510.91;5064318;28;1036;-36
2023/08/27 01:34:05;;;;;;;;;;;;;;;27.28;37.39;100505.69;5059324;28;1071;-38
2023/08/27 01:36:34;;;;;;;;;;;;;;;27.20;37.72;100501.19;5058991;28;1115;-37
2023/08/27 01:39:00;;;;;;;;;;;;;;;27.21;37.53;100508.28;5059014;28;1689;-39
2023/08/27 01:41:25;;;;;;;;;;;;;;;27.06;37.68;100511.03;5058441;28;1917;-35
2023/08/27 01:43:51;;;;;;;;;;;;;;;27.25;37.84;100510.41;5076891;28;1135;-38
2023/08/27 01:46:17;;;;;;;;;;;;;;;27.09;37.81;100499.84;5076996;28;1119;-38
2023/08/27 01:48:42;;;;;;;;;;;;;;;27.37;37.23;100502.66;5058345;28;1031;-39
2023/08/27 01:51:07;;;;;;;;;;;;;;;26.99;37.94;100500.91;5077152;28;1051;-39
2023/08/27 01:53:33;;;;;;;;;;;;;;;27.41;37.09;100495.00;5051844;28;2512;-39
2023/08/27 01:55:59;;;;;;;;;;;;;;;27.07;37.66;100494.63;5076818;28;1044;-35
2023/08/27 01:58:24;;;;;;;;;;;;;;;27.34;37.18;100502.19;5058044;28;1211;-38
2023/08/27 02:00:50;;;;;;;;;;;;;;;26.94;38.27;100499.84;5058216;28;1985;-37
2023/08/27 02:03:15;;;;;;;;;;;;;;;27.24;37.83;100511.44;5058592;28;1273;-39
2023/08/27 02:05:41;;;;;;;;;;;;;;;27.01;38.02;100501.59;5075726;28;929;-36
2023/08/27 02:08:06;;;;;;;;;;;;;;;27.20;37.51;100507.44;5076586;28;1004;-39
2023/08/27 02:10:32;;;;;;;;;;;;;;;27.05;37.71;100503.94;5058255;28;1471;-38
2023/08/27 02:12:58;;;;;;;;;;;;;;;27.44;37.47;100494.63;5058414;28;1261;-39
2023/08/27 02:15:23;;;;;;;;;;;;;;;27.14;37.74;100489.31;5058635;28;1059;-39
2023/08/27 02:17:49;;;;;;;;;;;;;;;27.26;37.64;100493.19;5075899;28;968;-39
2023/08/27 02:20:14;;;;;;;;;;;;;;;27.21;37.61;100492.91;5058042;28;2410;-39
2023/08/27 02:22:40;;;;;;;;;;;;;;;27.20;37.80;100499.34;5075916;28;1791;-37
2023/08/27 02:25:06;;;;;;;;;;;;;;;27.20;37.92;100498.50;5051194;28;1146;-39
2023/08/27 02:27:32;;;;;;;;;;;;;;;27.26;37.57;100505.84;5054893;28;1110;-37
2023/08/27 02:29:57;;;;;;;;;;;;;;;27.28;37.65;100501.09;5072405;28;848;-34
2023/08/27 02:32:25;;;;;;;;;;;;;;;27.41;37.20;100499.59;5076135;28;1052;-38
2023/08/27 02:34:51;;;;;;;;;;;;;;;27.32;37.33;100509.66;5038581;28;1444;-37
2023/08/27 02:37:16;;;;;;;;;;;;;;;27.22;37.61;100507.25;5055927;28;1127;-39
2023/08/27 02:39:42;;;;;;;;;;;;;;;27.22;37.48;100509.97;5045005;28;1902;-36
2023/08/27 02:42:07;;;;;;;;;;;;;;;27.16;37.88;100514.25;5044449;28;1122;-37
2023/08/27 02:44:34;;;;;;;;;;;;;;;27.25;37.51;100509.56;5051419;28;1082;-40
2023/08/27 02:47:00;;;;;;;;;;;;;;;27.08;37.68;100508.94;5051793;28;1293;-38
2023/08/27 02:49:26;;;;;;;;;;;;;;;27.25;37.21;100507.72;5075939;28;1034;-39
2023/08/27 02:51:52;;;;;;;;;;;;;;;27.02;37.58;100507.84;5057510;28;1071;-38
2023/08/27 02:54:18;;;;;;;;;;;;;;;27.25;37.51;100507.72;5051002;28;2617;-38
2023/08/27 02:56:43;;;;;;;;;;;;;;;27.00;38.20;100502.63;5069413;28;1052;-36
2023/08/27 02:59:09;;;;;;;;;;;;;;;27.17;37.67;100502.44;5075394;28;1267;-38
2023/08/27 03:01:34;;;;;;;;;;;;;;;27.12;37.76;100511.09;5057423;28;1914;-39
2023/08/27 03:04:00;;;;;;;;;;;;;;;27.17;37.60;100504.28;5044247;28;1228;-36
2023/08/27 03:06:25;;;;;;;;;;;;;;;26.97;38.32;100496.75;5044227;28;1195;-39
2023/08/27 03:08:51;;;;;;;;;;;;;;;27.17;37.49;100497.03;5075498;28;1138;-38
2023/08/27 03:11:16;;;;;;;;;;;;;;;27.09;37.90;100489.03;5057562;28;1201;-39
2023/08/27 03:13:42;;;;;;;;;;;;;;;27.16;37.64;100498.03;5057474;28;1087;-38
2023/08/27 03:16:08;;;;;;;;;;;;;;;27.54;36.51;100502.44;5058859;28;1182;-36
2023/08/27 03:18:33;;;;;;;;;;;;;;;27.65;36.25;100501.06;5055148;28;1015;-39
2023/08/27 03:20:59;;;;;;;;;;;;;;;27.14;37.41;100497.41;5054706;28;1910;-37
2023/08/27 03:23:24;;;;;;;;;;;;;;;27.34;37.12;100504.91;5072842;28;2463;-36
2023/08/27 03:25:50;;;;;;;;;;;;;;;27.14;37.07;100509.03;5054559;28;1094;-40
2023/08/27 03:28:15;;;;;;;;;;;;;;;27.54;36.22;100509.69;5061147;28;1074;-40
2023/08/27 03:30:41;;;;;;;;;;;;;;;27.49;36.16;100500.28;5061337;28;1106;-38
2023/08/27 03:33:07;;;;;;;;;;;;;;;27.35;37.07;100496.63;5061464;28;1206;-37
2023/08/27 03:35:32;;;;;;;;;;;;;;;27.34;39.54;100507.59;5061449;28;1157;-38
2023/08/27 03:37:58;;;;;;;;;;;;;;;27.72;38.48;100498.47;5061672;28;1157;-38
2023/08/27 03:40:23;;;;;;;;;;;;;;;27.45;38.27;100504.41;5061397;28;1914;-39
2023/08/27 03:42:49;;;;;;;;;;;;;;;27.37;37.52;100497.25;5078882;28;1103;-37
2023/08/27 03:45:15;;;;;;;;;;;;;;;27.16;42.56;100491.81;5061135;28;1876;-39
2023/08/27 03:47:41;;;;;;;;;;;;;;;26.68;47.58;100493.88;5060910;28;1079;-39
2023/08/27 03:50:07;;;;;;;;;;;;;;;26.60;49.40;100499.38;5060761;28;1291;-39
2023/08/27 03:52:34;;;;;;;;;;;;;;;26.58;50.47;100496.84;5060518;28;1035;-41
2023/08/27 03:55:01;;;;;;;;;;;;;;;26.96;50.70;100501.31;5066449;28;1060;-39
2023/08/27 03:57:26;;;;;;;;;;;;;;;26.82;50.36;100494.06;5079071;28;1035;-41
2023/08/27 03:59:52;;;;;;;;;;;;;;;26.92;50.32;100496.47;5079218;28;1967;-40
2023/08/27 04:02:17;;;;;;;;;;;;;;;27.38;48.54;100498.09;5078848;28;1232;-39
2023/08/27 04:04:43;;;;;;;;;;;;;;;27.28;47.94;100498.38;5060977;28;1075;-38
2023/08/27 04:07:08;;;;;;;;;;;;;;;27.26;49.51;100495.88;5061055;28;1139;-40
2023/08/27 04:09:34;;;;;;;;;;;;;;;27.66;49.07;100491.91;5051689;28;2337;-37
2023/08/27 04:11:59;;;;;;;;;;;;;;;27.38;50.40;100490.81;5058291;28;1861;-39
2023/08/27 04:14:25;;;;;;;;;;;;;;;27.51;50.77;100491.97;5048647;28;1847;-39
2023/08/27 04:16:51;;;;;;;;;;;;;;;27.30;50.63;100490.09;5050780;28;1878;-34
2023/08/27 04:19:16;;;;;;;;;;;;;;;27.62;49.51;100496.91;5071965;28;1896;-41
2023/08/27 04:21:42;;;;;;;;;;;;;;;27.91;47.43;100491.56;5070209;28;2011;-40
2023/08/27 04:24:08;;;;;;;;;;;;;;;28.03;46.12;100499.97;5056595;28;1812;-39
2023/08/27 04:26:33;;;;;;;;;;;;;;;27.94;48.13;100498.44;5063764;28;1380;-39
2023/08/27 04:28:59;;;;;;;;;;;;;;;27.72;47.92;100499.31;5076956;28;1285;-41
2023/08/27 04:31:24;;;;;;;;;;;;;;;27.61;47.21;100494.38;5078077;28;1210;-40
2023/08/27 04:33:50;;;;;;;;;;;;;;;28.09;48.19;100501.06;5078260;28;1289;-38
2023/08/27 04:36:15;;;;;;;;;;;;;;;27.60;48.25;100503.50;5077923;28;1194;-40
2023/08/27 04:38:41;;;;;;;;;;;;;;;27.97;49.19;100498.06;5060017;28;1297;-40
2023/08/27 04:41:07;;;;;;;;;;;;;;;28.06;50.11;100493.34;5059474;28;1909;-37
2023/08/27 04:43:33;;;;;;;;;;;;;;;27.93;48.96;100494.06;5039978;28;1294;-40
2023/08/27 04:45:58;;;;;;;;;;;;;;;27.65;53.18;100494.81;5058095;28;1305;-41
2023/08/27 04:48:24;;;;;;;;;;;;;;;27.71;51.95;100504.91;5056269;28;1254;-40
2023/08/27 04:50:50;;;;;;;;;;;;;;;27.55;53.77;100487.03;5054419;28;1149;-39
2023/08/27 04:53:15;;;;;;;;;;;;;;;28.16;49.09;100493.81;5076430;28;1123;-40
2023/08/27 04:55:41;;;;;;;;;;;;;;;28.43;48.59;100490.50;5074987;28;2492;-40
2023/08/27 04:58:08;;;;;;;;;;;;;;;28.42;49.54;100488.84;5059545;28;1222;-39
2023/08/27 05:00:34;;;;;;;;;;;;;;;28.21;47.62;100482.44;5077139;28;1973;-39
2023/08/27 05:02:59;;;;;;;;;;;;;;;28.39;46.19;100490.09;5077537;28;1222;-39
2023/08/27 05:05:25;;;;;;;;;;;;;;;28.47;46.02;100483.69;5057263;28;1194;-40
2023/08/27 05:07:50;;;;;;;;;;;;;;;28.51;47.35;100484.13;5039506;28;1244;-40
2023/08/27 05:10:16;;;;;;;;;;;;;;;28.43;48.82;100483.22;5057299;28;1313;-37
2023/08/27 05:12:41;;;;;;;;;;;;;;;28.34;46.62;100479.03;5039064;28;1250;-40
2023/08/27 05:15:09;;;;;;;;;;;;;;;28.10;46.88;100491.91;5039487;28;1254;-37
2023/08/27 05:17:34;;;;;;;;;;;;;;;28.52;46.05;100489.31;5041287;28;1384;-40
2023/08/27 05:20:00;;;;;;;;;;;;;;;27.93;47.30;100488.66;5058832;28;1975;-39
2023/08/27 05:22:25;;;;;;;;;;;;;;;28.48;45.97;100491.59;5076848;28;1246;-39
2023/08/27 05:24:51;;;;;;;;;;;;;;;28.54;46.17;100500.78;5058920;28;1827;-38
2023/08/27 05:27:16;;;;;;;;;;;;;;;28.34;46.34;100501.47;5076963;28;1253;-40
2023/08/27 05:29:42;;;;;;;;;;;;;;;28.52;45.11;100512.84;5075254;28;1298;-41
2023/08/27 05:32:07;;;;;;;;;;;;;;;28.66;44.87;100511.06;5056773;28;1219;-41
2023/08/27 05:34:33;;;;;;;;;;;;;;;28.47;45.25;100505.31;5056880;28;1380;-38
2023/08/27 05:36:58;;;;;;;;;;;;;;;28.27;46.07;100502.44;5056736;28;1218;-40
2023/08/27 05:39:24;;;;;;;;;;;;;;;28.80;44.49;100503.81;5056087;28;1914;-40
2023/08/27 05:41:50;;;;;;;;;;;;;;;28.79;44.34;100504.88;5058958;28;1150;-38
2023/08/27 05:44:15;;;;;;;;;;;;;;;28.76;43.75;100508.81;5038466;28;1175;-39
2023/08/27 05:46:41;;;;;;;;;;;;;;;28.59;43.88;100511.84;5038686;28;1284;-40
2023/08/27 05:49:06;;;;;;;;;;;;;;;28.68;42.82;100507.09;5038650;28;1282;-40
2023/08/27 05:51:34;;;;;;;;;;;;;;;28.78;42.37;100509.44;5038597;28;1270;-39
2023/08/27 05:53:59;;;;;;;;;;;;;;;28.83;42.18;100506.13;5039741;28;1806;-38
2023/08/27 05:56:27;;;;;;;;;;;;;;;28.85;41.68;100515.75;5038331;28;1207;-35
2023/08/27 05:58:53;;;;;;;;;;;;;;;28.80;42.40;100522.78;5038817;28;1298;-38
2023/08/27 06:01:19;;;;;;;;;;;;;;;28.75;42.13;100511.72;5038175;28;1906;-40
2023/08/27 06:03:44;;;;;;;;;;;;;;;28.70;42.35;100520.44;5056248;28;1288;-40
2023/08/27 06:06:10;;;;;;;;;;;;;;;28.83;41.87;100516.97;5055823;28;1253;-36
2023/08/27 06:08:37;;;;;;;;;;;;;;;28.77;41.76;100506.94;5038270;28;1337;-37
2023/08/27 06:11:04;;;;;;;;;;;;;;;28.78;41.31;100509.44;5038111;28;1266;-39
2023/08/27 06:13:30;;;;;;;;;;;;;;;28.88;41.56;100513.69;5038138;28;1266;-37
2023/08/27 06:15:56;;;;;;;;;;;;;;;28.87;40.98;100502.00;5037818;28;1215;-37
2023/08/27 06:18:22;;;;;;;;;;;;;;;28.70;41.67;100504.19;5039471;28;1267;-38
2023/08/27 06:20:48;;;;;;;;;;;;;;;28.71;41.90;100504.00;5055912;28;1987;-39
2023/08/27 06:23:14;;;;;;;;;;;;;;;28.77;40.78;100512.34;5038082;28;1251;-36
2023/08/27 06:25:40;;;;;;;;;;;;;;;28.81;41.43;100505.53;5038520;28;2239;-40
2023/08/27 06:28:07;;;;;;;;;;;;;;;28.84;40.87;100505.94;5041948;28;1325;-39
2023/08/27 06:30:32;;;;;;;;;;;;;;;28.68;41.15;100501.69;5052275;28;1201;-36
2023/08/27 06:33:02;;;;;;;;;;;;;;;28.73;41.06;100501.94;5037803;28;1157;-37
2023/08/27 06:35:28;;;;;;;;;;;;;;;28.70;41.90;100505.03;5038027;28;1251;-35
2023/08/27 06:37:53;;;;;;;;;;;;;;;28.50;42.57;100502.22;5037710;28;1309;-37
2023/08/27 06:40:19;;;;;;;;;;;;;;;28.55;41.73;100498.91;5037413;28;1975;-38
2023/08/27 06:42:44;;;;;;;;;;;;;;;28.70;42.36;100504.19;5040197;28;1298;-38
2023/08/27 06:45:16;;;;;;;;;;;;;;;28.67;42.98;100501.91;5037708;28;1265;-39
2023/08/27 06:47:41;;;;;;;;;;;;;;;28.80;42.62;100506.53;5048693;28;1316;-39
2023/08/27 06:50:07;;;;;;;;;;;;;;;28.48;43.04;100504.28;5061662;28;1302;-38
2023/08/27 06:52:32;;;;;;;;;;;;;;;28.42;42.77;100500.50;5075667;28;1091;-37
2023/08/27 06:54:59;;;;;;;;;;;;;;;28.43;42.55;100504.88;5057731;28;1411;-37
2023/08/27 06:57:25;;;;;;;;;;;;;;;28.53;41.55;100509.94;5057464;28;1342;-39
2023/08/27 06:59:52;;;;;;;;;;;;;;;28.65;41.21;100504.81;5057743;28;1910;-39
2023/08/27 07:02:19;;;;;;;;;;;;;;;28.81;39.84;100511.75;5057799;28;1325;-38
2023/08/27 07:04:46;;;;;;;;;;;;;;;28.92;39.53;100507.66;5058088;28;1353;-37
2023/08/27 07:07:11;;;;;;;;;;;;;;;29.06;40.01;100511.25;5051138;28;1270;-39
2023/08/27 07:09:37;;;;;;;;;;;;;;;28.88;40.19;100514.50;5037698;28;1260;-38
2023/08/27 07:12:03;;;;;;;;;;;;;;;28.53;40.83;100506.41;5049418;28;1134;-39
2023/08/27 07:14:28;;;;;;;;;;;;;;;28.51;41.43;100512.00;5076270;28;1070;-40
2023/08/27 07:16:54;;;;;;;;;;;;;;;28.40;41.69;100518.81;5076194;28;1011;-38
2023/08/27 07:19:20;;;;;;;;;;;;;;;28.51;41.98;100513.88;5057525;28;1229;-36
2023/08/27 07:21:46;;;;;;;;;;;;;;;28.53;42.24;100504.53;5075932;28;1909;-37
2023/08/27 07:24:13;;;;;;;;;;;;;;;28.63;42.18;100503.34;5053933;28;1272;-36
2023/08/27 07:26:39;;;;;;;;;;;;;;;28.69;41.57;100506.09;5037897;28;2575;-39
2023/08/27 07:29:05;;;;;;;;;;;;;;;28.76;41.46;100506.09;5062972;28;1690;-38
2023/08/27 07:31:31;;;;;;;;;;;;;;;28.93;40.83;100505.75;5039254;28;1689;-38
2023/08/27 07:33:57;;;;;;;;;;;;;;;28.91;40.16;100495.13;5053330;28;1714;-39
2023/08/27 07:36:22;;;;;;;;;;;;;;;28.78;40.50;100501.31;5067523;28;1793;-38
2023/08/27 07:38:48;;;;;;;;;;;;;;;28.93;40.62;100493.06;5065224;28;1841;-37
2023/08/27 07:41:14;;;;;;;;;;;;;;;29.03;40.75;100492.72;5046818;28;1918;-40
2023/08/27 07:43:39;;;;;;;;;;;;;;;28.94;40.88;100494.75;5066328;28;1218;-39
2023/08/27 07:46:05;;;;;;;;;;;;;;;29.10;40.41;100495.44;5037272;28;1331;-40
2023/08/27 07:48:32;;;;;;;;;;;;;;;29.11;40.18;100499.84;5045435;28;1282;-38
2023/08/27 07:50:58;;;;;;;;;;;;;;;29.28;40.30;100492.19;5074941;28;1250;-35
2023/08/27 07:53:24;;;;;;;;;;;;;;;29.41;39.76;100495.97;5056636;28;1340;-37
2023/08/27 07:55:50;;;;;;;;;;;;;;;29.44;39.64;100493.69;5046962;28;1202;-36
2023/08/27 07:58:15;;;;;;;;;;;;;;;29.34;39.65;100494.06;5053400;28;1270;-37
2023/08/27 08:00:41;;;;;;;;;;;;;;;29.47;39.63;100489.72;5036249;28;1898;-35
2023/08/27 08:03:07;;;;;;;;;;;;;;;29.48;39.54;100491.38;5037822;28;1207;-36
2023/08/27 08:05:33;;;;;;;;;;;;;;;29.30;39.72;100492.81;5058165;28;1281;-38
2023/08/27 08:07:58;;;;;;;;;;;;;;;29.34;38.71;100498.66;5058469;28;1206;-39
2023/08/27 08:10:24;;;;;;;;;;;;;;;29.08;40.15;100497.53;5061896;28;1242;-38
2023/08/27 08:12:49;;;;;;;;;;;;;;;29.03;40.44;100490.00;5078138;28;2086;-37
2023/08/27 08:15:15;;;;;;;;;;;;;;;29.14;40.35;100496.72;5078514;28;1174;-38
2023/08/27 08:17:41;;;;;;;;;;;;;;;29.48;39.95;100499.50;5071903;28;1242;-36
2023/08/27 08:20:07;;;;;;;;;;;;;;;29.43;39.12;100494.72;5070490;28;1909;-39
2023/08/27 08:22:32;;;;;;;;;;;;;;;29.52;39.07;100495.38;5078721;28;1155;-39
2023/08/27 08:24:58;;;;;;;;;;;;;;;29.50;39.65;100492.00;5078298;28;1039;-37
2023/08/27 08:27:24;;;;;;;;;;;;;;;29.42;39.91;100495.75;5078087;28;1198;-34
2023/08/27 08:29:49;;;;;;;;;;;;;;;29.30;40.38;100494.69;5078467;28;1190;-37
2023/08/27 08:32:15;;;;;;;;;;;;;;;29.37;40.92;100492.84;5078062;28;907;-37
2023/08/27 08:34:41;;;;;;;;;;;;;;;29.50;40.17;100493.88;5078325;28;1091;-38
2023/08/27 08:37:07;;;;;;;;;;;;;;;29.65;39.81;100494.56;5078089;28;1174;-39
2023/08/27 08:39:32;;;;;;;;;;;;;;;29.52;40.30;100484.53;5077754;28;1981;-33
2023/08/27 08:42:02;;;;;;;;;;;;;;;29.35;40.24;100492.19;5078133;28;1862;-34
2023/08/27 08:44:36;;;;;;;;;;;;;;;29.36;40.44;100491.16;5072044;28;1239;-39
2023/08/27 08:47:02;;;;;;;;;;;;;;;29.25;40.96;100487.16;5072023;28;1019;-39
2023/08/27 08:49:27;;;;;;;;;;;;;;;29.45;40.62;100494.50;5060076;28;1343;-37
2023/08/27 08:51:54;;;;;;;;;;;;;;;29.68;40.27;100490.59;5077633;28;1067;-38
2023/08/27 08:54:21;;;;;;;;;;;;;;;29.72;39.96;100485.59;5077602;28;1035;-40
2023/08/27 08:56:48;;;;;;;;;;;;;;;29.85;39.68;100492.91;5046884;28;888;-35
2023/08/27 08:59:13;;;;;;;;;;;;;;;29.94;39.41;100497.09;5056437;28;1095;-38
2023/08/27 09:01:39;;;;;;;;;;;;;;;29.93;39.72;100498.97;5066774;28;1983;-37
2023/08/27 09:04:06;;;;;;;;;;;;;;;29.72;40.03;100493.75;5059603;28;1207;-33
2023/08/27 09:06:31;;;;;;;;;;;;;;;29.53;40.77;100502.44;5060366;28;1190;-37
2023/08/27 09:08:57;;;;;;;;;;;;;;;29.67;40.33;100499.78;5077001;28;1003;-38
2023/08/27 09:11:23;;;;;;;;;;;;;;;29.58;40.63;100497.25;5077784;28;2237;-34
2023/08/27 09:13:48;;;;;;;;;;;;;;;29.56;40.08;100488.47;5045761;28;1031;-39
2023/08/27 09:16:14;;;;;;;;;;;;;;;29.65;40.22;100499.16;5077214;28;1572;-41
2023/08/27 09:18:39;;;;;;;;;;;;;;;29.77;40.43;100499.38;5077492;28;1072;-40
2023/08/27 09:21:06;;;;;;;;;;;;;;;29.82;40.09;100496.88;5076874;28;1902;-40
2023/08/27 09:23:37;;;;;;;;;;;;;;;29.76;40.56;100500.44;5076599;28;1032;-37
2023/08/27 09:26:02;;;;;;;;;;;;;;;30.05;39.87;100487.50;5059942;28;1125;-37
2023/08/27 09:28:28;;;;;;;;;;;;;;;29.84;40.22;100483.13;5059520;28;1170;-39
2023/08/27 09:30:54;;;;;;;;;;;;;;;29.17;41.19;100481.94;5077141;28;1078;-38
2023/08/27 09:33:19;;;;;;;;;;;;;;;29.03;39.03;100484.59;5076779;28;1124;-39
2023/08/27 09:35:45;;;;;;;;;;;;;;;28.89;38.99;100478.28;5063936;28;996;-38
2023/08/27 09:38:11;;;;;;;;;;;;;;;28.83;38.99;100479.91;5077146;28;1063;-39
2023/08/27 09:40:37;;;;;;;;;;;;;;;28.86;38.53;100486.81;5076840;28;1905;-38
2023/08/27 09:43:06;;;;;;;;;;;;;;;28.95;38.11;100482.88;5051000;28;1194;-40
2023/08/27 09:45:32;;;;;;;;;;;;;;;28.86;38.71;100475.97;5074789;28;1070;-39
2023/08/27 09:47:58;;;;;;;;;;;;;;;28.79;39.18;100481.34;5076698;28;1015;-40
2023/08/27 09:50:24;;;;;;;;;;;;;;;29.01;38.64;100478.53;5076377;28;1099;-41
2023/08/27 09:52:49;;;;;;;;;;;;;;;28.81;39.41;100483.88;5076667;28;1093;-38
2023/08/27 09:55:16;;;;;;;;;;;;;;;28.74;39.56;100483.81;5058600;28;1047;-39
2023/08/27 09:57:50;;;;;;;;;;;;;;;28.67;40.65;100482.94;5076619;28;903;-40
2023/08/27 10:00:17;;;;;;;;;;;;;;;28.83;39.66;100479.06;5076240;28;1902;-38
2023/08/27 10:02:43;;;;;;;;;;;;;;;28.65;40.65;100483.16;5076950;28;1059;-39
2023/08/27 10:05:09;;;;;;;;;;;;;;;28.65;40.86;100483.16;5076207;28;1022;-39
2023/08/27 10:07:34;;;;;;;;;;;;;;;28.52;41.18;100477.66;5076654;28;1188;-41
2023/08/27 10:10:00;;;;;;;;;;;;;;;28.67;41.29;100480.25;5076667;28;1130;-38
2023/08/27 10:12:25;;;;;;;;;;;;;;;28.67;40.42;100485.66;5049384;28;2661;-39
2023/08/27 10:14:51;;;;;;;;;;;;;;;28.50;40.73;100475.16;5058500;28;1154;-40
2023/08/27 10:17:16;;;;;;;;;;;;;;;28.55;41.56;100488.94;5076365;28;1074;-39
2023/08/27 10:19:42;;;;;;;;;;;;;;;28.57;41.53;100470.63;5064154;28;1914;-37
2023/08/27 10:22:07;;;;;;;;;;;;;;;28.64;41.92;100476.09;5062241;28;1046;-36
2023/08/27 10:24:33;;;;;;;;;;;;;;;28.54;42.01;100475.59;5057905;28;1214;-38
2023/08/27 10:26:59;;;;;;;;;;;;;;;28.64;41.97;100478.78;5075208;28;1302;-40
2023/08/27 10:29:25;;;;;;;;;;;;;;;28.67;42.24;100470.25;5075819;28;1210;-39
2023/08/27 10:31:51;;;;;;;;;;;;;;;28.61;42.21;100473.78;5075663;28;1258;-41
2023/08/27 10:34:17;;;;;;;;;;;;;;;28.56;42.08;100468.13;5056050;28;1282;-36
2023/08/27 10:36:42;;;;;;;;;;;;;;;28.63;42.29;100466.28;5055378;28;1246;-39
2023/08/27 10:39:08;;;;;;;;;;;;;;;28.60;42.00;100474.78;5055567;28;1234;-39
2023/08/27 10:41:36;;;;;;;;;;;;;;;28.66;42.14;100465.88;5053971;28;2281;-38
2023/08/27 10:44:02;;;;;;;;;;;;;;;28.57;42.48;100467.94;5072077;28;1159;-40
2023/08/27 10:46:28;;;;;;;;;;;;;;;28.67;42.18;100461.28;5056355;28;1321;-40
2023/08/27 10:48:53;;;;;;;;;;;;;;;28.64;42.47;100461.69;5065006;28;1063;-40
2023/08/27 10:51:21;;;;;;;;;;;;;;;28.71;41.89;100473.41;5075998;28;1194;-40
2023/08/27 10:53:49;;;;;;;;;;;;;;;28.56;42.26;100466.22;5076042;28;1127;-39
2023/08/27 10:56:25;;;;;;;;;;;;;;;28.67;41.90;100464.84;5075294;28;1066;-39
2023/08/27 10:58:50;;;;;;;;;;;;;;;28.70;42.49;100463.59;5075632;28;1032;-40
2023/08/27 11:01:18;;;;;;;;;;;;;;;28.69;42.71;100462.78;5075155;28;1918;-38
2023/08/27 11:04:04;;;;;;;;;;;;;;;28.81;41.94;100454.09;5075847;28;1138;-39
2023/08/27 11:06:36;;;;;;;;;;;;;;;28.65;41.67;100456.09;5075377;28;1472;-39
2023/08/27 11:09:10;;;;;;;;;;;;;;;28.65;41.74;100450.69;5074653;28;1091;-35
2023/08/27 11:11:35;;;;;;;;;;;;;;;28.71;41.43;100449.88;5064416;28;1931;-40
2023/08/27 11:14:10;;;;;;;;;;;;;;;28.75;42.41;100452.16;5044099;28;1154;-40
2023/08/27 11:16:46;;;;;;;;;;;;;;;28.75;41.76;100444.88;5075224;28;1078;-38
2023/08/27 11:19:11;;;;;;;;;;;;;;;28.58;42.24;100438.97;5075723;28;1100;-39
2023/08/27 11:21:37;;;;;;;;;;;;;;;28.89;41.44;100444.94;5063690;28;1918;-39
2023/08/27 11:24:21;;;;;;;;;;;;;;;28.60;41.86;100431.50;5074842;28;1219;-41
2023/08/27 11:26:49;;;;;;;;;;;;;;;28.66;41.00;100435.28;5075134;28;1234;-36
2023/08/27 11:29:15;;;;;;;;;;;;;;;28.69;41.81;100429.47;5074615;28;1162;-39
2023/08/27 11:31:41;;;;;;;;;;;;;;;28.79;41.37;100431.78;5075682;28;1257;-39
2023/08/27 11:34:07;;;;;;;;;;;;;;;28.57;42.07;100435.44;5059976;28;1226;-39
2023/08/27 11:36:33;;;;;;;;;;;;;;;28.67;41.78;100426.97;5055002;28;1288;-39
2023/08/27 11:38:59;;;;;;;;;;;;;;;28.71;41.06;100425.50;5059034;28;1234;-39
2023/08/27 11:41:25;;;;;;;;;;;;;;;28.61;41.82;100427.78;5070286;28;2285;-40
2023/08/27 11:43:53;;;;;;;;;;;;;;;28.59;41.64;100427.94;5058715;28;1246;-37
2023/08/27 11:46:24;;;;;;;;;;;;;;;28.58;40.93;100429.00;5059056;28;1246;-40
2023/08/27 11:48:50;;;;;;;;;;;;;;;28.65;41.23;100420.06;5076742;28;1446;-39
2023/08/27 11:51:15;;;;;;;;;;;;;;;28.58;41.64;100414.63;5078451;28;1159;-38
2023/08/27 11:53:41;;;;;;;;;;;;;;;28.64;41.49;100416.53;5079012;28;1249;-39
2023/08/27 11:56:07;;;;;;;;;;;;;;;28.46;41.84;100404.38;5060961;28;1218;-39
2023/08/27 11:58:33;;;;;;;;;;;;;;;28.53;41.35;100409.81;5044673;28;1278;-41
2023/08/27 12:00:58;;;;;;;;;;;;;;;28.61;41.39;100403.41;5058306;28;1921;-40
2023/08/27 12:03:24;;;;;;;;;;;;;;;28.57;41.41;100400.28;5058487;28;1198;-38
2023/08/27 12:05:50;;;;;;;;;;;;;;;28.55;41.33;100396.09;5058509;28;1147;-37
2023/08/27 12:08:15;;;;;;;;;;;;;;;28.62;40.85;100396.09;5058035;28;1183;-39
2023/08/27 12:10:42;;;;;;;;;;;;;;;28.53;41.71;100390.88;5060873;28;1816;-37
2023/08/27 12:13:08;;;;;;;;;;;;;;;28.55;40.96;100396.94;5057049;28;1295;-38
2023/08/27 12:15:35;;;;;;;;;;;;;;;28.56;41.35;100400.47;5057219;28;1269;-38
2023/08/27 12:18:01;;;;;;;;;;;;;;;28.69;41.12;100397.81;5057815;28;1230;-39
2023/08/27 12:20:33;;;;;;;;;;;;;;;28.67;41.33;100399.91;5058272;28;1922;-40
2023/08/27 12:23:20;;;;;;;;;;;;;;;28.70;40.96;100387.81;5058030;28;1237;-35
2023/08/27 12:25:46;;;;;;;;;;;;;;;28.71;41.13;100394.91;5075724;28;1143;-40
2023/08/27 12:28:11;;;;;;;;;;;;;;;28.66;40.96;100386.56;5073600;28;1143;-39
2023/08/27 12:30:37;;;;;;;;;;;;;;;28.66;40.83;100376.56;5057905;28;1274;-38
2023/08/27 12:33:03;;;;;;;;;;;;;;;28.62;40.51;100386.13;5057592;28;1206;-37
2023/08/27 12:35:29;;;;;;;;;;;;;;;28.46;41.24;100390.84;5057943;28;1222;-38
2023/08/27 12:37:55;;;;;;;;;;;;;;;28.59;40.64;100389.25;5057618;28;1301;-39
2023/08/27 12:40:20;;;;;;;;;;;;;;;28.53;41.38;100384.66;5057198;28;1918;-40
2023/08/27 12:42:46;;;;;;;;;;;;;;;28.52;41.18;100378.38;5058670;28;2490;-36